Aktuální počasí v Česku a ve světě - METAR

Seznam meteostanic umístěných nejčasteji na letišti v ČR a ve světě

Vyhledat místa podle abecedy:
A B C D E F G H I J K L M N O P Q R S T U V W X Y Z

Filtrovat:

ID stanice:
a/nebo
Název místa (fulltext):
 
Místo (ID)Naposledy načteno 
Náměšť nad Oslavou (Namest n/O) 05.03.2021 10:00 UTC Zobrazit data
Místo: Náměšť nad Oslavou
Teplota: 0 °C (pocitová: -8.4 °C)
Vítr: 4 m/s z(e) 320°
Počasí: zataženo
Dohlednost: 10 km
Zákl. oblačnosti: 2/8 450 m;5/8 750 m
Vlhkost: 100%
N'Djamena (FTTJ) 05.03.2021 10:00 UTC Zobrazit METAR
FTTJ 051000Z 02012KT 020V090 4500 DU NSC 33/M04 Q1011 NOSIG
Nairobi (HKJK) 05.03.2021 10:00 UTC Zobrazit METAR
HKJK 051000Z 05016KT 9999 SCT027 26/15 Q1020 NOSIG
Nantes/ Atlantique (LFRS) 05.03.2021 10:00 UTC Zobrazit METAR
LFRS 051000Z AUTO 04012KT 020V080 9999 SCT027 OVC037 08/02 Q1025 NOSIG
Nassau (MYNN) 05.03.2021 10:00 UTC Zobrazit METAR
MYNN 051000Z 35005KT 9999 -SHRA SCT015 BKN030 20/19 A2989
Nauru (ANAU) Zatím nenačteno  
Nausori (NFNA) 05.03.2021 10:00 UTC Zobrazit METAR
NFNA 051000Z 01004KT 9999 FEW020 BKN120 27/24 Q1010
New York (KNYC) 05.03.2021 09:51 UTC Zobrazit METAR
KNYC 050951Z 31011G19KT 10SM CLR M04/M16 A2990 RMK AO2 SLP117 T10391156
Newcastle (EGNT) 05.03.2021 09:50 UTC Zobrazit METAR
EGNT 050950Z 01006KT 9999 SCT015 03/01 Q1034
Niamey (DRRN) 05.03.2021 10:00 UTC Zobrazit METAR
DRRN 051000Z 08013KT 5000 BLDU NSC 34/M07 Q1011 BECMG NSW
Nice/ Cote D'Azur (LFMN) 05.03.2021 10:00 UTC Zobrazit METAR
LFMN 051000Z VRB03KT 9999 FEW036 BKN230 13/09 Q1016 NOSIG
Niue Island (NIUE) 05.03.2021 10:00 UTC Zobrazit METAR
NIUE 051000Z AUTO 27001KT // 24/23 Q1012
Nizhny Novgorod (UWGG) 13.10.2017 15:00 UTC Zobrazit METAR
UWGG 131500Z 9000 NSC 10/07 Q1006 R18R/290050 NOSIG RMK QFE747
North Caicos I. (MBNC) Zatím nenačteno  
Nouakchott (GQNN) 23.06.2016 11:00 UTC Zobrazit METAR
GQNN 231100Z 23009KT 180V250 7000 BKN010 25/18 Q1013 NOSIG
Noumea (NWWM) Zatím nenačteno  
Nuku'alofa (NFTF) 05.03.2021 10:00 UTC Zobrazit METAR
NFTF 051000Z VRB02KT 9999 FEW016 BKN280 25/24 Q1012
Reklama

Reklama


Počasí na Váš email

Emaily jsou bez reklamy a bez spamu



Odhlásit newsletter



Další české internetové stránky (nejen) o počasí najdete v katalogu TOPlist - weby o počasí nebo vyhledejte na internetu, co jste tu na 🌞 Slunečnu ⛅ zatím nenašli:
⭐ Přidat Slunečno.cz do oblíbených | 🏠 Nastavit Slunečno.cz jako HOMEPAGE

⬆️ Posunout stránku nahoru ⬆️
Reklama